Time;durP1;ratioP1;P1;durP2;ratioP2;P2;SDS_P1;SDS_P2;PMS_P1;PMS_P2;Temp;Humidity;BMP_temperature;BMP_pressure;BME280_temperature;BME280_humidity;BME280_pressure;Samples;Min_cycle;Max_cycle;Signal;HPM_P1;HPM_P2
2022/09/23 00:00:11;;;;;;;;;;;8.80;99.90;;;;;;4989894;28;19922;-71
2022/09/23 00:02:39;;;;;;;;;;;8.90;99.90;;;;;;4990388;28;19918;-70
2022/09/23 00:05:06;;;;;;;;;;;8.80;99.90;;;;;;4990257;28;19926;-74
2022/09/23 00:07:33;;;;;;;;;;;8.90;99.90;;;;;;4987845;28;20224;-69
2022/09/23 00:10:00;;;;;;;;;;;8.90;99.90;;;;;;4989485;28;19924;-74
2022/09/23 00:12:27;;;;;;;;;;;8.90;99.90;;;;;;4990239;28;19918;-74
2022/09/23 00:14:53;;;;;;;;;;;8.90;99.90;;;;;;4989821;28;20016;-70
2022/09/23 00:17:20;;;;;;;;;;;8.90;99.90;;;;;;4988278;28;19932;-70
2022/09/23 00:19:47;;;;;;;;;;;8.90;99.90;;;;;;4989839;28;19929;-73
2022/09/23 00:22:14;;;;;;;;;;;8.90;99.90;;;;;;4989118;28;19918;-71
2022/09/23 00:24:41;;;;;;;;;;;8.90;99.90;;;;;;4988509;28;19917;-74
2022/09/23 00:27:08;;;;;;;;;;;8.90;99.90;;;;;;4989884;28;19967;-73
2022/09/23 00:29:35;;;;;;;;;;;8.90;99.90;;;;;;4987083;28;20353;-72
2022/09/23 00:32:02;;;;;;;;;;;8.90;99.90;;;;;;4989406;28;19917;-72
2022/09/23 00:34:29;;;;;;;;;;;8.90;99.90;;;;;;4988983;28;19938;-73
2022/09/23 00:36:56;;;;;;;;;;;8.90;99.90;;;;;;4989170;28;19917;-72
2022/09/23 00:39:24;;;;;;;;;;;9.00;99.90;;;;;;4984819;28;19917;-74
2022/09/23 00:41:51;;;;;;;;;;;9.00;99.90;;;;;;4974037;28;19978;-74
2022/09/23 00:44:37;;;;;;;;;;;9.00;99.90;;;;;;4987768;28;19918;-73
2022/09/23 00:47:04;;;;;;;;;;;9.00;99.90;;;;;;4986277;28;19940;-74
2022/09/23 00:49:30;;;;;;;;;;;9.00;99.90;;;;;;4987156;28;19918;-74
2022/09/23 00:52:01;;;;;;;;;;;9.00;99.90;;;;;;4988567;28;19922;-72
2022/09/23 00:54:29;;;;;;;;;;;9.10;99.90;;;;;;4987769;28;19933;-74
2022/09/23 00:56:56;;;;;;;;;;;9.00;99.90;;;;;;4988326;28;19928;-73
2022/09/23 00:59:24;;;;;;;;;;;9.10;99.90;;;;;;4986976;28;19918;-73
2022/09/23 01:01:53;;;;;;;;;;;9.10;99.90;;;;;;4989032;28;19922;-74
2022/09/23 01:04:24;;;;;;;;;;;9.10;99.90;;;;;;4989107;28;19924;-71
2022/09/23 01:06:51;;;;;;;;;;;9.10;99.90;;;;;;4988723;28;20056;-74
2022/09/23 01:09:19;;;;;;;;;;;9.10;99.90;;;;;;4986794;28;19921;-74
2022/09/23 01:11:45;;;;;;;;;;;9.10;99.90;;;;;;4988504;28;19921;-72
2022/09/23 01:14:18;;;;;;;;;;;9.10;99.90;;;;;;4989117;28;19949;-74
2022/09/23 01:17:00;;;;;;;;;;;9.10;99.90;;;;;;4988806;28;19932;-74
2022/09/23 01:19:27;;;;;;;;;;;9.10;99.90;;;;;;4986900;28;19917;-74
2022/09/23 01:22:12;;;;;;;;;;;9.10;99.90;;;;;;4988587;28;20004;-73
2022/09/23 01:24:47;;;;;;;;;;;9.10;99.90;;;;;;5002001;28;19968;-73
2022/09/23 01:27:20;;;;;;;;;;;9.10;99.90;;;;;;4986957;28;20032;-71
2022/09/23 01:30:02;;;;;;;;;;;9.10;99.90;;;;;;4975298;28;19949;-75
2022/09/23 01:32:39;;;;;;;;;;;9.10;99.90;;;;;;4984747;28;20306;-73
2022/09/23 01:35:06;;;;;;;;;;;9.10;99.90;;;;;;4988558;28;19922;-74
2022/09/23 01:37:56;;;;;;;;;;;9.10;99.90;;;;;;4986184;28;20008;-72
2022/09/23 01:40:35;;;;;;;;;;;9.10;99.90;;;;;;4980954;28;19922;-74
2022/09/23 01:43:08;;;;;;;;;;;9.10;99.90;;;;;;4988352;28;19941;-75
2022/09/23 01:45:38;;;;;;;;;;;9.10;99.90;;;;;;4986341;28;19929;-75
2022/09/23 01:48:09;;;;;;;;;;;9.10;99.90;;;;;;4987982;28;19922;-68
2022/09/23 01:50:55;;;;;;;;;;;9.10;99.90;;;;;;4992599;28;20217;-72
2022/09/23 01:53:25;;;;;;;;;;;9.10;99.90;;;;;;4985739;28;19932;-74
2022/09/23 01:55:57;;;;;;;;;;;9.00;99.90;;;;;;4978084;28;19918;-72
2022/09/23 01:58:32;;;;;;;;;;;9.00;99.90;;;;;;4981008;28;19957;-74
2022/09/23 02:01:05;;;;;;;;;;;9.00;99.90;;;;;;4977030;28;19918;-70
2022/09/23 02:03:32;;;;;;;;;;;9.00;99.90;;;;;;4983058;28;20068;-74
2022/09/23 02:06:04;;;;;;;;;;;9.00;99.90;;;;;;4978454;28;19928;-71
2022/09/23 02:08:31;;;;;;;;;;;9.00;99.90;;;;;;4984133;28;19918;-73
2022/09/23 02:11:07;;;;;;;;;;;9.00;99.90;;;;;;4985197;28;19922;-74
2022/09/23 02:13:52;;;;;;;;;;;9.00;99.90;;;;;;4981752;28;20549;-73
2022/09/23 02:16:21;;;;;;;;;;;9.00;99.90;;;;;;4979705;28;19922;-72
2022/09/23 02:19:08;;;;;;;;;;;9.00;99.90;;;;;;4974201;28;19917;-74
2022/09/23 02:21:39;;;;;;;;;;;9.00;99.90;;;;;;4978077;28;19926;-74
2022/09/23 02:24:09;;;;;;;;;;;9.00;99.90;;;;;;4994942;28;20251;-72
2022/09/23 02:26:48;;;;;;;;;;;9.00;99.90;;;;;;4984668;28;19925;-73
2022/09/23 02:29:20;;;;;;;;;;;9.00;99.90;;;;;;4973854;28;20017;-73
2022/09/23 02:31:53;;;;;;;;;;;9.00;99.90;;;;;;4987614;28;19939;-72
2022/09/23 02:34:26;;;;;;;;;;;9.10;99.90;;;;;;4976865;28;19922;-75
2022/09/23 02:37:11;;;;;;;;;;;9.10;99.90;;;;;;4980721;28;19917;-72
2022/09/23 02:39:45;;;;;;;;;;;9.10;99.90;;;;;;4975070;28;19924;-74
2022/09/23 02:42:14;;;;;;;;;;;9.10;99.90;;;;;;4987211;28;19941;-74
2022/09/23 02:44:41;;;;;;;;;;;9.10;99.90;;;;;;4988359;28;20301;-73
2022/09/23 02:47:09;;;;;;;;;;;9.10;99.90;;;;;;4988692;28;19940;-73
2022/09/23 02:49:36;;;;;;;;;;;9.10;99.90;;;;;;4985561;28;19996;-75
2022/09/23 02:52:04;;;;;;;;;;;9.20;99.90;;;;;;4987436;28;19929;-75
2022/09/23 02:54:34;;;;;;;;;;;9.20;99.90;;;;;;4986643;28;19980;-74
2022/09/23 02:57:03;;;;;;;;;;;9.20;99.90;;;;;;4987058;28;19928;-71
2022/09/23 02:59:31;;;;;;;;;;;9.10;99.90;;;;;;4986030;28;19928;-74
2022/09/23 03:02:19;;;;;;;;;;;9.10;99.90;;;;;;4987283;28;20520;-72
2022/09/23 03:05:02;;;;;;;;;;;9.20;99.90;;;;;;4980156;28;19941;-74
2022/09/23 03:07:39;;;;;;;;;;;9.20;99.90;;;;;;4984926;28;19954;-71
2022/09/23 03:10:15;;;;;;;;;;;9.20;99.90;;;;;;4987139;28;19918;-74
2022/09/23 03:12:41;;;;;;;;;;;9.30;99.90;;;;;;4987113;28;19922;-73
2022/09/23 03:15:18;;;;;;;;;;;9.30;99.90;;;;;;4987521;28;19917;-72
2022/09/23 03:17:50;;;;;;;;;;;9.40;99.90;;;;;;4986076;28;19922;-74
2022/09/23 03:20:38;;;;;;;;;;;9.40;99.90;;;;;;4990013;28;19960;-72
2022/09/23 03:23:07;;;;;;;;;;;9.40;99.90;;;;;;4983524;28;20370;-71
2022/09/23 03:25:36;;;;;;;;;;;9.50;99.90;;;;;;4988303;28;19929;-74
2022/09/23 03:28:03;;;;;;;;;;;9.60;99.90;;;;;;4991049;28;19933;-74
2022/09/23 03:30:34;;;;;;;;;;;9.80;99.90;;;;;;4989195;28;19957;-72
2022/09/23 03:33:03;;;;;;;;;;;9.80;99.90;;;;;;4991231;28;19918;-69
2022/09/23 03:35:31;;;;;;;;;;;9.90;99.90;;;;;;4987577;28;20246;-73
2022/09/23 03:37:58;;;;;;;;;;;10.10;99.90;;;;;;4989474;28;20362;-74
2022/09/23 03:40:32;;;;;;;;;;;10.20;99.90;;;;;;4990134;28;19967;-74
2022/09/23 03:43:01;;;;;;;;;;;10.40;99.90;;;;;;4994117;28;19918;-70
2022/09/23 03:45:31;;;;;;;;;;;10.40;99.90;;;;;;4975678;28;19949;-74
2022/09/23 03:47:59;;;;;;;;;;;10.60;99.90;;;;;;4990900;28;20009;-73
2022/09/23 03:50:26;;;;;;;;;;;10.70;99.90;;;;;;4990491;28;19921;-71
2022/09/23 03:52:54;;;;;;;;;;;10.90;99.90;;;;;;5002396;28;19929;-75
2022/09/23 03:55:21;;;;;;;;;;;10.90;99.90;;;;;;4988188;28;19917;-73
2022/09/23 03:57:48;;;;;;;;;;;10.90;99.90;;;;;;4989929;28;19979;-72
2022/09/23 04:00:14;;;;;;;;;;;10.90;99.90;;;;;;4990381;28;20009;-72
2022/09/23 04:02:41;;;;;;;;;;;10.90;99.90;;;;;;4990252;28;19922;-75
2022/09/23 04:05:09;;;;;;;;;;;10.90;99.90;;;;;;4989686;28;19917;-73
2022/09/23 04:07:35;;;;;;;;;;;10.90;99.90;;;;;;4987399;28;19918;-74
2022/09/23 04:10:03;;;;;;;;;;;10.90;99.90;;;;;;4989842;28;20241;-73
2022/09/23 04:12:30;;;;;;;;;;;11.00;99.90;;;;;;4989557;28;20012;-70
2022/09/23 04:14:57;;;;;;;;;;;11.00;99.90;;;;;;4990150;28;19924;-75
2022/09/23 04:17:24;;;;;;;;;;;11.00;99.90;;;;;;4987912;28;19952;-74
2022/09/23 04:19:50;;;;;;;;;;;11.10;99.90;;;;;;4982353;28;19922;-71
2022/09/23 04:22:17;;;;;;;;;;;11.20;99.90;;;;;;4981250;28;20260;-74
2022/09/23 04:24:44;;;;;;;;;;;11.30;99.90;;;;;;4977807;28;20315;-72
2022/09/23 04:27:11;;;;;;;;;;;11.30;99.90;;;;;;4984298;28;20017;-69
2022/09/23 04:29:37;;;;;;;;;;;11.40;99.90;;;;;;4980494;28;20009;-73
2022/09/23 04:32:04;;;;;;;;;;;11.40;99.90;;;;;;4986182;28;20008;-75
2022/09/23 04:34:31;;;;;;;;;;;11.40;99.90;;;;;;4987286;28;19917;-73
2022/09/23 04:36:58;;;;;;;;;;;11.40;99.90;;;;;;4988716;28;19952;-74
2022/09/23 04:39:25;;;;;;;;;;;11.40;99.90;;;;;;4988483;28;19918;-73
2022/09/23 04:41:52;;;;;;;;;;;11.40;99.90;;;;;;5004513;28;19918;-72
2022/09/23 04:44:20;;;;;;;;;;;11.40;99.90;;;;;;4989488;28;19925;-70
2022/09/23 04:46:46;;;;;;;;;;;11.40;99.90;;;;;;4989531;28;19921;-75
2022/09/23 04:49:14;;;;;;;;;;;11.40;99.90;;;;;;4989539;28;19918;-73
2022/09/23 04:51:42;;;;;;;;;;;11.30;99.90;;;;;;4987019;28;20060;-74
2022/09/23 04:54:10;;;;;;;;;;;11.30;99.90;;;;;;4988503;28;19918;-73
2022/09/23 04:56:38;;;;;;;;;;;11.30;99.90;;;;;;4989535;28;19925;-68
2022/09/23 04:59:05;;;;;;;;;;;11.30;99.90;;;;;;4988999;28;19918;-71
2022/09/23 05:01:33;;;;;;;;;;;11.40;99.90;;;;;;4986959;28;20017;-74
2022/09/23 05:04:01;;;;;;;;;;;11.30;99.90;;;;;;4987563;28;19917;-70
2022/09/23 05:06:30;;;;;;;;;;;11.30;99.90;;;;;;4987256;28;20182;-71
2022/09/23 05:08:57;;;;;;;;;;;11.30;99.90;;;;;;4987698;28;19938;-74
2022/09/23 05:11:25;;;;;;;;;;;11.40;99.90;;;;;;4983335;28;19975;-70
2022/09/23 05:13:52;;;;;;;;;;;11.40;99.90;;;;;;4985316;28;19928;-74
2022/09/23 05:16:21;;;;;;;;;;;11.40;99.90;;;;;;4983299;28;19918;-72
2022/09/23 05:18:49;;;;;;;;;;;11.40;99.90;;;;;;4987376;28;20186;-73
2022/09/23 05:21:18;;;;;;;;;;;11.40;99.90;;;;;;4983149;28;20343;-72
2022/09/23 05:23:53;;;;;;;;;;;11.50;99.90;;;;;;4986006;28;20312;-75
2022/09/23 05:26:20;;;;;;;;;;;11.50;99.90;;;;;;4987417;28;19924;-71
2022/09/23 05:28:47;;;;;;;;;;;11.60;99.90;;;;;;4984930;28;20022;-71
2022/09/23 05:31:15;;;;;;;;;;;11.80;99.90;;;;;;4982528;28;19929;-68
2022/09/23 05:33:52;;;;;;;;;;;11.90;99.90;;;;;;4978277;28;19957;-72
2022/09/23 05:36:20;;;;;;;;;;;12.00;99.90;;;;;;4975259;28;19949;-73
2022/09/23 05:38:48;;;;;;;;;;;12.10;99.90;;;;;;4975878;28;20300;-72
2022/09/23 05:41:16;;;;;;;;;;;12.20;99.90;;;;;;4976236;28;20025;-74
2022/09/23 05:43:43;;;;;;;;;;;12.30;99.90;;;;;;4972851;28;19922;-73
2022/09/23 05:46:14;;;;;;;;;;;12.40;99.90;;;;;;4973375;28;19926;-73
2022/09/23 05:48:42;;;;;;;;;;;12.40;99.90;;;;;;4971379;28;19921;-73
2022/09/23 05:51:11;;;;;;;;;;;12.40;99.90;;;;;;4976364;28;19918;-73
2022/09/23 05:53:39;;;;;;;;;;;12.50;99.90;;;;;;4971979;28;19918;-71
2022/09/23 05:56:06;;;;;;;;;;;12.50;99.90;;;;;;4975217;28;19917;-74
2022/09/23 05:58:34;;;;;;;;;;;12.50;99.90;;;;;;4973422;28;20352;-74
2022/09/23 06:01:07;;;;;;;;;;;12.60;99.90;;;;;;4975207;28;19930;-72
2022/09/23 06:03:34;;;;;;;;;;;12.60;99.90;;;;;;4972544;28;20238;-73
2022/09/23 06:06:00;;;;;;;;;;;12.70;99.90;;;;;;4973826;28;19925;-72
2022/09/23 06:08:27;;;;;;;;;;;12.70;99.90;;;;;;4974613;28;19930;-73
2022/09/23 06:10:55;;;;;;;;;;;12.70;99.90;;;;;;4975024;28;19918;-73
2022/09/23 06:13:21;;;;;;;;;;;12.80;99.90;;;;;;4973373;28;19918;-69
2022/09/23 06:15:49;;;;;;;;;;;12.80;99.90;;;;;;4973471;28;20573;-74
2022/09/23 06:18:16;;;;;;;;;;;12.80;99.90;;;;;;4977395;28;20008;-74
2022/09/23 06:20:42;;;;;;;;;;;12.80;99.90;;;;;;4973629;28;20311;-71
2022/09/23 06:23:10;;;;;;;;;;;12.80;99.90;;;;;;4971224;28;19922;-74
2022/09/23 06:25:39;;;;;;;;;;;12.80;99.90;;;;;;4972815;28;20009;-74
2022/09/23 06:28:10;;;;;;;;;;;12.80;99.90;;;;;;4973508;28;19924;-72
2022/09/23 06:30:38;;;;;;;;;;;12.80;99.90;;;;;;4978257;28;19988;-74
2022/09/23 06:33:05;;;;;;;;;;;12.80;99.90;;;;;;4973339;28;19918;-74
2022/09/23 06:35:32;;;;;;;;;;;12.80;99.90;;;;;;4970598;28;20371;-73
2022/09/23 06:38:02;;;;;;;;;;;12.90;99.90;;;;;;4995372;28;20340;-73
2022/09/23 06:40:28;;;;;;;;;;;12.90;99.90;;;;;;4978722;28;20257;-74
2022/09/23 06:42:57;;;;;;;;;;;13.00;99.90;;;;;;4972618;28;19918;-74
2022/09/23 06:45:24;;;;;;;;;;;12.90;99.90;;;;;;4972837;28;19924;-74
2022/09/23 06:47:57;;;;;;;;;;;12.90;99.90;;;;;;4974947;28;20033;-73
2022/09/23 06:50:24;;;;;;;;;;;12.90;99.90;;;;;;4974474;28;19918;-74
2022/09/23 06:52:55;;;;;;;;;;;12.90;99.90;;;;;;4971295;28;20012;-73
2022/09/23 06:55:23;;;;;;;;;;;12.90;99.90;;;;;;4985260;28;20025;-72
2022/09/23 06:57:50;;;;;;;;;;;12.90;99.90;;;;;;4979396;28;19972;-74
2022/09/23 07:00:17;;;;;;;;;;;12.90;99.90;;;;;;4977786;28;19947;-73
2022/09/23 07:02:43;;;;;;;;;;;13.00;99.90;;;;;;4979786;28;19930;-72
2022/09/23 07:05:10;;;;;;;;;;;13.00;99.90;;;;;;4982967;28;19925;-74
2022/09/23 07:07:38;;;;;;;;;;;12.90;99.90;;;;;;4982436;28;19929;-74
2022/09/23 07:10:05;;;;;;;;;;;12.90;99.90;;;;;;4979135;28;19925;-73
2022/09/23 07:12:32;;;;;;;;;;;13.00;99.90;;;;;;4979076;28;19925;-73
2022/09/23 07:14:59;;;;;;;;;;;13.00;99.90;;;;;;4982317;28;20010;-73
2022/09/23 07:17:25;;;;;;;;;;;13.00;99.90;;;;;;4976056;28;19926;-72
2022/09/23 07:19:53;;;;;;;;;;;13.10;99.90;;;;;;4979465;28;19922;-74
2022/09/23 07:22:21;;;;;;;;;;;13.10;99.90;;;;;;4982825;28;19930;-72
2022/09/23 07:24:47;;;;;;;;;;;13.20;99.90;;;;;;4978781;28;19925;-73
2022/09/23 07:27:18;;;;;;;;;;;13.20;99.90;;;;;;4985968;28;19930;-69
2022/09/23 07:29:49;;;;;;;;;;;13.30;99.90;;;;;;4979821;28;20386;-74
2022/09/23 07:32:16;;;;;;;;;;;13.30;99.90;;;;;;4979685;28;19964;-73
2022/09/23 07:34:43;;;;;;;;;;;13.40;99.90;;;;;;4987520;28;20566;-73
2022/09/23 07:37:10;;;;;;;;;;;13.40;99.90;;;;;;4985991;28;19918;-73
2022/09/23 07:39:38;;;;;;;;;;;13.50;99.90;;;;;;4981102;28;19932;-71
2022/09/23 07:42:05;;;;;;;;;;;13.50;99.90;;;;;;4988061;28;20654;-72
2022/09/23 07:44:32;;;;;;;;;;;13.50;99.90;;;;;;4982363;28;19998;-77
2022/09/23 07:46:59;;;;;;;;;;;13.60;99.90;;;;;;4978893;28;19917;-70
2022/09/23 07:49:26;;;;;;;;;;;13.60;99.90;;;;;;4975074;28;19929;-73
2022/09/23 07:51:53;;;;;;;;;;;13.60;99.90;;;;;;4981097;28;19937;-74
2022/09/23 07:54:20;;;;;;;;;;;13.60;99.90;;;;;;4981750;28;20269;-70
2022/09/23 07:56:47;;;;;;;;;;;13.70;99.90;;;;;;4986383;28;20006;-72
2022/09/23 07:59:17;;;;;;;;;;;13.70;99.90;;;;;;4990152;28;19918;-73
2022/09/23 08:01:46;;;;;;;;;;;13.70;99.90;;;;;;4986335;28;19964;-72
2022/09/23 08:04:16;;;;;;;;;;;13.70;99.90;;;;;;4988917;28;20013;-75
2022/09/23 08:06:44;;;;;;;;;;;13.70;99.90;;;;;;4987499;28;20076;-74
2022/09/23 08:09:11;;;;;;;;;;;13.80;99.90;;;;;;4988007;28;19939;-74
2022/09/23 08:11:40;;;;;;;;;;;13.80;99.90;;;;;;4987883;28;19917;-73
2022/09/23 08:14:12;;;;;;;;;;;13.90;99.90;;;;;;4989048;28;19944;-73
2022/09/23 08:16:39;;;;;;;;;;;13.90;99.90;;;;;;4988997;28;19926;-73
2022/09/23 08:19:06;;;;;;;;;;;13.90;99.90;;;;;;4989186;28;19917;-74
2022/09/23 08:21:33;;;;;;;;;;;13.90;99.90;;;;;;4980231;28;19922;-73
2022/09/23 08:24:00;;;;;;;;;;;13.80;99.90;;;;;;4985723;28;19921;-73
2022/09/23 08:26:27;;;;;;;;;;;13.90;99.90;;;;;;4988548;28;20012;-73
2022/09/23 08:28:55;;;;;;;;;;;13.90;99.90;;;;;;4988724;28;19917;-73
2022/09/23 08:31:22;;;;;;;;;;;13.90;99.90;;;;;;4984204;28;19929;-71
2022/09/23 08:33:53;;;;;;;;;;;14.00;99.90;;;;;;4988456;28;19964;-75
2022/09/23 08:36:20;;;;;;;;;;;14.00;99.90;;;;;;4987361;28;19949;-70
2022/09/23 08:38:47;;;;;;;;;;;14.10;99.90;;;;;;4988008;28;19917;-73
2022/09/23 08:41:13;;;;;;;;;;;14.10;99.90;;;;;;4988672;28;20248;-75
2022/09/23 08:43:44;;;;;;;;;;;14.10;99.90;;;;;;4986240;28;20017;-73
2022/09/23 08:46:11;;;;;;;;;;;14.20;99.90;;;;;;4985850;28;20487;-74
2022/09/23 08:48:42;;;;;;;;;;;14.20;99.90;;;;;;4984122;28;19933;-75
2022/09/23 08:51:29;;;;;;;;;;;14.20;99.90;;;;;;4983142;28;19924;-73
2022/09/23 08:53:57;;;;;;;;;;;14.20;99.90;;;;;;4987418;28;20392;-73
2022/09/23 08:56:23;;;;;;;;;;;14.20;99.90;;;;;;4988667;28;19928;-73
2022/09/23 08:58:54;;;;;;;;;;;14.20;99.90;;;;;;4989243;28;19943;-74
2022/09/23 09:01:24;;;;;;;;;;;14.20;99.90;;;;;;4986706;28;19976;-74
2022/09/23 09:03:52;;;;;;;;;;;14.20;99.90;;;;;;4985454;28;20213;-74
2022/09/23 09:06:23;;;;;;;;;;;14.20;99.90;;;;;;4987959;28;19917;-73
2022/09/23 09:08:53;;;;;;;;;;;14.20;99.90;;;;;;4987553;28;19957;-74
2022/09/23 09:11:22;;;;;;;;;;;14.20;99.90;;;;;;4984470;28;19918;-71
2022/09/23 09:14:00;;;;;;;;;;;14.30;99.90;;;;;;4983013;28;19922;-73
2022/09/23 09:16:53;;;;;;;;;;;14.30;99.90;;;;;;4986514;28;19922;-75
2022/09/23 09:19:46;;;;;;;;;;;14.30;99.90;;;;;;4987297;28;19917;-71
2022/09/23 09:22:18;;;;;;;;;;;14.30;99.90;;;;;;4987483;28;19917;-74
2022/09/23 09:24:47;;;;;;;;;;;14.40;99.90;;;;;;4987286;28;20271;-70
2022/09/23 09:27:14;;;;;;;;;;;14.50;99.90;;;;;;4988081;28;19924;-70
2022/09/23 09:29:45;;;;;;;;;;;14.50;99.90;;;;;;4987074;28;20056;-75
2022/09/23 09:32:13;;;;;;;;;;;14.60;99.90;;;;;;4981952;28;20047;-75
2022/09/23 09:34:44;;;;;;;;;;;14.70;99.90;;;;;;4988561;28;20619;-73
2022/09/23 09:37:19;;;;;;;;;;;14.70;99.90;;;;;;4987121;28;20016;-74
2022/09/23 09:39:46;;;;;;;;;;;14.80;99.90;;;;;;4986100;28;19973;-74
2022/09/23 09:42:17;;;;;;;;;;;14.90;99.90;;;;;;4986612;28;19917;-73
2022/09/23 09:44:57;;;;;;;;;;;14.90;99.90;;;;;;4987616;28;19945;-70
2022/09/23 09:47:33;;;;;;;;;;;14.80;99.90;;;;;;4985457;28;20025;-73
2022/09/23 09:50:05;;;;;;;;;;;14.80;99.90;;;;;;4987581;28;20315;-70
2022/09/23 09:52:32;;;;;;;;;;;14.70;99.90;;;;;;4985960;28;19924;-73
2022/09/23 09:55:10;;;;;;;;;;;14.70;99.90;;;;;;4986217;28;19968;-75
2022/09/23 09:57:46;;;;;;;;;;;14.70;99.90;;;;;;4980697;28;19988;-73
2022/09/23 10:00:24;;;;;;;;;;;14.70;99.90;;;;;;4985035;28;20352;-73
2022/09/23 10:02:57;;;;;;;;;;;14.70;99.90;;;;;;4985523;28;19925;-75
2022/09/23 10:05:26;;;;;;;;;;;14.70;99.90;;;;;;4983831;28;19917;-72
2022/09/23 10:07:53;;;;;;;;;;;14.80;99.90;;;;;;5007418;28;19957;-73
2022/09/23 10:10:23;;;;;;;;;;;14.90;99.90;;;;;;4997598;28;19917;-71
2022/09/23 10:13:12;;;;;;;;;;;14.90;99.90;;;;;;5006398;28;20327;-70
2022/09/23 10:15:42;;;;;;;;;;;15.00;99.90;;;;;;5004410;28;19921;-73
2022/09/23 10:18:25;;;;;;;;;;;14.90;99.90;;;;;;5006500;28;19929;-74
2022/09/23 10:20:58;;;;;;;;;;;15.00;99.90;;;;;;5005915;28;19917;-73
2022/09/23 10:23:26;;;;;;;;;;;15.00;99.90;;;;;;5005128;28;19921;-74
2022/09/23 10:25:59;;;;;;;;;;;15.00;99.90;;;;;;5006612;28;19923;-73
2022/09/23 10:28:45;;;;;;;;;;;15.00;99.90;;;;;;5012096;28;20262;-75
2022/09/23 10:31:13;;;;;;;;;;;15.00;99.90;;;;;;5006891;28;20336;-74
2022/09/23 10:33:41;;;;;;;;;;;15.10;99.90;;;;;;5004930;28;19952;-74
2022/09/23 10:36:08;;;;;;;;;;;15.10;99.90;;;;;;5006037;28;20244;-71
2022/09/23 10:38:35;;;;;;;;;;;15.20;99.90;;;;;;4999600;28;20000;-71
2022/09/23 10:46:40;;;;;;;;;;;15.10;99.90;;;;;;5006051;28;19923;-72
2022/09/23 10:49:26;;;;;;;;;;;15.10;99.90;;;;;;5005404;28;19921;-73
2022/09/23 10:52:21;;;;;;;;;;;15.10;99.90;;;;;;5002594;28;19917;-71
2022/09/23 10:55:06;;;;;;;;;;;14.90;99.90;;;;;;5002553;28;19924;-72
2022/09/23 10:57:40;;;;;;;;;;;14.80;99.90;;;;;;5002355;28;20020;-73
2022/09/23 11:00:15;;;;;;;;;;;14.90;99.90;;;;;;5006721;28;19979;-72
2022/09/23 11:03:01;;;;;;;;;;;14.90;99.90;;;;;;5002752;28;19928;-72
2022/09/23 11:05:37;;;;;;;;;;;15.00;99.90;;;;;;4993057;28;19996;-73
2022/09/23 11:08:04;;;;;;;;;;;15.20;99.90;;;;;;5012713;28;19917;-74
2022/09/23 11:10:41;;;;;;;;;;;15.20;99.90;;;;;;5005157;28;20287;-74
2022/09/23 11:13:24;;;;;;;;;;;15.30;99.90;;;;;;5008564;28;19928;-74
2022/09/23 11:15:50;;;;;;;;;;;15.30;99.90;;;;;;5013379;28;19945;-75
2022/09/23 11:18:20;;;;;;;;;;;15.40;99.90;;;;;;4998335;28;20210;-71
2022/09/23 11:20:56;;;;;;;;;;;15.30;99.90;;;;;;4994540;28;19925;-72
2022/09/23 11:23:23;;;;;;;;;;;15.30;99.90;;;;;;4989135;28;19973;-70
2022/09/23 11:26:08;;;;;;;;;;;15.20;99.90;;;;;;4997796;28;20287;-73
2022/09/23 11:28:35;;;;;;;;;;;15.30;99.90;;;;;;4990821;28;19922;-74
2022/09/23 11:31:13;;;;;;;;;;;15.30;99.90;;;;;;4995109;28;20009;-74
2022/09/23 11:33:47;;;;;;;;;;;15.40;99.90;;;;;;4995073;28;20310;-73
2022/09/23 11:36:20;;;;;;;;;;;15.40;99.90;;;;;;4988939;28;20332;-73
2022/09/23 11:38:48;;;;;;;;;;;15.40;99.90;;;;;;4992424;28;19961;-73
2022/09/23 11:41:18;;;;;;;;;;;15.40;99.90;;;;;;4993115;28;19921;-73
2022/09/23 11:43:50;;;;;;;;;;;15.50;99.90;;;;;;5001760;28;19917;-75
2022/09/23 11:46:23;;;;;;;;;;;15.50;99.90;;;;;;5008444;28;20067;-75
2022/09/23 11:48:52;;;;;;;;;;;15.70;99.90;;;;;;4999798;28;20386;-75
2022/09/23 11:51:23;;;;;;;;;;;15.70;99.90;;;;;;5006772;28;19921;-74
2022/09/23 11:53:56;;;;;;;;;;;15.60;99.90;;;;;;5008156;28;19917;-75
2022/09/23 11:56:32;;;;;;;;;;;15.70;99.90;;;;;;5009566;28;19917;-71
2022/09/23 11:59:02;;;;;;;;;;;15.70;99.90;;;;;;5007274;28;20338;-72
2022/09/23 12:01:32;;;;;;;;;;;15.60;99.90;;;;;;5000608;28;20019;-75
2022/09/23 12:04:12;;;;;;;;;;;15.50;99.90;;;;;;5006217;28;20368;-72
2022/09/23 12:07:13;;;;;;;;;;;15.40;99.90;;;;;;5003863;28;19960;-74
2022/09/23 12:09:43;;;;;;;;;;;15.40;99.90;;;;;;5000112;28;19927;-74
2022/09/23 12:12:34;;;;;;;;;;;15.30;99.90;;;;;;4997024;28;21090;-71
2022/09/23 12:15:00;;;;;;;;;;;15.20;99.90;;;;;;4996049;28;20347;-72
2022/09/23 12:17:43;;;;;;;;;;;15.40;99.90;;;;;;4993788;28;20007;-74
2022/09/23 12:20:12;;;;;;;;;;;15.50;99.90;;;;;;5002078;28;20004;-71
2022/09/23 12:23:17;;;;;;;;;;;15.40;99.90;;;;;;5004647;28;19925;-72
2022/09/23 12:25:47;;;;;;;;;;;15.40;99.90;;;;;;4980331;28;19929;-72
2022/09/23 12:28:17;;;;;;;;;;;15.60;99.90;;;;;;4985432;28;20004;-72
2022/09/23 12:30:44;;;;;;;;;;;15.60;99.90;;;;;;4986790;28;20012;-70
2022/09/23 12:33:31;;;;;;;;;;;15.50;99.90;;;;;;5007249;28;19921;-73
2022/09/23 12:36:03;;;;;;;;;;;15.50;99.90;;;;;;4998867;28;19981;-73
2022/09/23 12:38:37;;;;;;;;;;;15.40;99.90;;;;;;4997479;28;19996;-72
2022/09/23 12:41:22;;;;;;;;;;;15.50;99.90;;;;;;4997504;28;20019;-73
2022/09/23 12:43:54;;;;;;;;;;;15.40;99.90;;;;;;4995052;28;19925;-72
2022/09/23 12:46:26;;;;;;;;;;;15.40;99.90;;;;;;4995241;28;20036;-75
2022/09/23 12:48:59;;;;;;;;;;;15.60;99.90;;;;;;4993838;28;19996;-70
2022/09/23 12:51:27;;;;;;;;;;;15.60;99.90;;;;;;4994040;28;19945;-71
2022/09/23 12:53:57;;;;;;;;;;;15.60;99.90;;;;;;4994014;28;19922;-72
2022/09/23 12:56:26;;;;;;;;;;;15.60;99.90;;;;;;5008307;28;19925;-74
2022/09/23 12:59:01;;;;;;;;;;;15.60;99.90;;;;;;5006170;28;19929;-72
2022/09/23 13:01:34;;;;;;;;;;;15.60;99.90;;;;;;5008694;28;19921;-76
2022/09/23 13:06:57;;;;;;;;;;;15.70;99.90;;;;;;4999919;28;19936;-75
2022/09/23 13:09:28;;;;;;;;;;;15.80;99.90;;;;;;4998347;28;20390;-74
2022/09/23 13:12:04;;;;;;;;;;;15.80;99.90;;;;;;5002332;28;19937;-75
2022/09/23 13:14:31;;;;;;;;;;;15.80;99.90;;;;;;5005900;28;19949;-71
2022/09/23 13:16:58;;;;;;;;;;;15.70;99.90;;;;;;4994646;28;19926;-75
2022/09/23 13:19:25;;;;;;;;;;;15.80;99.90;;;;;;5008072;28;20427;-73
2022/09/23 13:21:52;;;;;;;;;;;15.80;99.90;;;;;;5010173;28;20262;-73
2022/09/23 13:24:23;;;;;;;;;;;15.90;99.90;;;;;;5007990;28;19979;-69
2022/09/23 13:27:09;;;;;;;;;;;15.90;99.90;;;;;;5007929;28;19917;-74
2022/09/23 13:29:42;;;;;;;;;;;16.00;99.90;;;;;;4990711;28;19922;-72
2022/09/23 13:32:13;;;;;;;;;;;15.90;99.90;;;;;;5008200;28;19925;-75
2022/09/23 13:34:43;;;;;;;;;;;15.90;99.90;;;;;;5007644;28;19935;-75
2022/09/23 13:37:12;;;;;;;;;;;15.90;99.90;;;;;;5007872;28;19925;-73
2022/09/23 13:39:39;;;;;;;;;;;15.80;99.90;;;;;;5005033;28;20362;-76
2022/09/23 13:42:09;;;;;;;;;;;15.80;99.90;;;;;;5006273;28;19917;-76
2022/09/23 13:44:39;;;;;;;;;;;15.90;99.90;;;;;;5007509;28;19923;-76
2022/09/23 13:47:11;;;;;;;;;;;15.90;99.90;;;;;;5008068;28;20016;-71
2022/09/23 13:49:38;;;;;;;;;;;16.00;99.90;;;;;;4999855;28;19921;-70
2022/09/23 13:52:20;;;;;;;;;;;16.10;99.90;;;;;;5007140;28;19921;-76
2022/09/23 13:54:48;;;;;;;;;;;16.10;99.90;;;;;;5006331;28;19921;-76
2022/09/23 13:57:25;;;;;;;;;;;16.10;99.90;;;;;;5004823;28;19928;-73
2022/09/23 13:59:52;;;;;;;;;;;16.10;99.90;;;;;;5003872;28;19944;-75
2022/09/23 14:02:19;;;;;;;;;;;16.30;99.90;;;;;;5005730;28;19925;-71
2022/09/23 14:04:46;;;;;;;;;;;16.30;99.90;;;;;;5001207;28;20005;-73
2022/09/23 14:07:14;;;;;;;;;;;16.40;99.90;;;;;;5006468;28;19922;-76
2022/09/23 14:09:42;;;;;;;;;;;16.50;99.90;;;;;;5003778;28;19921;-75
2022/09/23 14:12:09;;;;;;;;;;;16.70;99.90;;;;;;5004179;28;19926;-75
2022/09/23 14:14:38;;;;;;;;;;;16.90;99.90;;;;;;5006763;28;19926;-73
2022/09/23 14:17:06;;;;;;;;;;;16.80;99.90;;;;;;5011596;28;19916;-76
2022/09/23 14:19:34;;;;;;;;;;;16.60;99.90;;;;;;5008183;28;19917;-73
2022/09/23 14:22:01;;;;;;;;;;;16.60;99.90;;;;;;4999452;28;20003;-76
2022/09/23 14:24:28;;;;;;;;;;;16.50;99.90;;;;;;5005479;28;20212;-75
2022/09/23 14:27:07;;;;;;;;;;;16.50;99.90;;;;;;5007408;28;19944;-75
2022/09/23 14:29:33;;;;;;;;;;;16.40;99.90;;;;;;4998722;28;19975;-70
2022/09/23 14:32:03;;;;;;;;;;;16.30;99.90;;;;;;5007296;28;20731;-75
2022/09/23 14:34:38;;;;;;;;;;;16.20;99.90;;;;;;5001057;28;19925;-75
2022/09/23 14:40:00;;;;;;;;;;;16.00;99.90;;;;;;5005328;28;19921;-75
2022/09/23 14:42:28;;;;;;;;;;;15.90;99.90;;;;;;5006680;28;19921;-76
2022/09/23 14:44:55;;;;;;;;;;;15.60;99.90;;;;;;5007521;28;20262;-71
2022/09/23 14:47:23;;;;;;;;;;;15.50;99.90;;;;;;4995647;28;19949;-73
2022/09/23 14:52:36;;;;;;;;;;;15.30;99.90;;;;;;5007540;28;19921;-75
2022/09/23 14:55:03;;;;;;;;;;;15.20;99.90;;;;;;5006307;28;19921;-75